Time;durP1;ratioP1;P1;durP2;ratioP2;P2;SDS_P1;SDS_P2;PMS_P1;PMS_P2;Temp;Humidity;BMP_temperature;BMP_pressure;BME280_temperature;BME280_humidity;BME280_pressure;Samples;Min_cycle;Max_cycle;Signal;HPM_P1;HPM_P2
2023/03/17 00:01:10;;;;;;;1.92;0.90;;;;;;;;;;5020768;28;20030;-76
2023/03/17 00:03:37;;;;;;;2.97;1.10;;;;;;;;;;5027528;28;20113;-76
2023/03/17 00:06:04;;;;;;;4.78;1.40;;;;;;;;;;5021284;28;20040;-77
2023/03/17 00:08:35;;;;;;;3.63;0.98;;;;;;;;;;4999872;28;20040;-75
2023/03/17 00:11:01;;;;;;;4.50;1.50;;;;;;;;;;5017994;28;20540;-75
2023/03/17 00:13:29;;;;;;;2.63;1.00;;;;;;;;;;5019548;28;20018;-77
2023/03/17 00:15:58;;;;;;;2.90;1.15;;;;;;;;;;5015173;28;20028;-75
2023/03/17 00:18:25;;;;;;;3.47;0.90;;;;;;;;;;5016985;28;20536;-78
2023/03/17 00:20:51;;;;;;;2.50;1.20;;;;;;;;;;5015569;28;20184;-76
2023/03/17 00:23:21;;;;;;;2.35;1.10;;;;;;;;;;5021434;28;20481;-77
2023/03/17 00:25:48;;;;;;;3.80;1.15;;;;;;;;;;5011738;28;20033;-78
2023/03/17 00:28:19;;;;;;;2.55;1.10;;;;;;;;;;5015889;28;20387;-76
2023/03/17 00:30:46;;;;;;;4.38;1.38;;;;;;;;;;5016752;28;20104;-78
2023/03/17 00:33:14;;;;;;;2.10;0.90;;;;;;;;;;5013926;28;20036;-77
2023/03/17 00:35:41;;;;;;;3.72;1.00;;;;;;;;;;4996787;28;20499;-77
2023/03/17 00:38:10;;;;;;;2.60;0.88;;;;;;;;;;5012244;28;20018;-77
2023/03/17 00:40:37;;;;;;;3.85;1.10;;;;;;;;;;5017427;28;20049;-75
2023/03/17 00:43:03;;;;;;;3.20;1.10;;;;;;;;;;5016614;28;20083;-76
2023/03/17 00:45:29;;;;;;;4.65;1.15;;;;;;;;;;5000433;28;20620;-76
2023/03/17 00:47:55;;;;;;;4.15;1.30;;;;;;;;;;5015005;28;20533;-76
2023/03/17 00:50:24;;;;;;;2.40;1.27;;;;;;;;;;5017180;28;20047;-76
2023/03/17 00:52:55;;;;;;;2.63;1.13;;;;;;;;;;5021604;28;20025;-79
2023/03/17 00:55:22;;;;;;;2.75;1.08;;;;;;;;;;5011108;28;20060;-76
2023/03/17 00:57:49;;;;;;;4.18;1.20;;;;;;;;;;5017254;28;20029;-78
2023/03/17 01:00:23;;;;;;;3.08;1.17;;;;;;;;;;5012225;28;20029;-78
2023/03/17 01:02:50;;;;;;;4.25;1.30;;;;;;;;;;5022539;28;20059;-76
2023/03/17 01:05:16;;;;;;;2.60;1.10;;;;;;;;;;5015066;28;20092;-76
2023/03/17 01:07:46;;;;;;;7.50;1.33;;;;;;;;;;5019082;28;20018;-77
2023/03/17 01:10:15;;;;;;;6.38;2.08;;;;;;;;;;5016199;28;20054;-76
2023/03/17 01:12:41;;;;;;;5.10;1.00;;;;;;;;;;5017634;28;20029;-75
2023/03/17 01:15:08;;;;;;;4.63;1.27;;;;;;;;;;5014493;28;20026;-77
2023/03/17 01:17:34;;;;;;;4.10;1.20;;;;;;;;;;5000275;28;20030;-76
2023/03/17 01:20:00;;;;;;;5.85;1.50;;;;;;;;;;5016359;28;20135;-74
2023/03/17 01:22:26;;;;;;;1.52;1.23;;;;;;;;;;5019720;28;20103;-79
2023/03/17 01:24:53;;;;;;;5.60;1.48;;;;;;;;;;5013095;28;20361;-76
2023/03/17 01:27:19;;;;;;;3.53;1.17;;;;;;;;;;5016490;28;20022;-75
2023/03/17 01:29:45;;;;;;;5.00;1.55;;;;;;;;;;5015384;28;20649;-76
2023/03/17 01:32:11;;;;;;;4.55;1.48;;;;;;;;;;5015765;28;20033;-75
2023/03/17 01:34:38;;;;;;;5.28;1.52;;;;;;;;;;5019128;28;20249;-75
2023/03/17 01:37:05;;;;;;;3.10;1.27;;;;;;;;;;4997248;28;20025;-75
2023/03/17 01:39:32;;;;;;;6.47;1.30;;;;;;;;;;5015795;28;20022;-77
2023/03/17 01:42:00;;;;;;;8.23;1.50;;;;;;;;;;5018087;28;20045;-78
2023/03/17 01:44:27;;;;;;;5.82;1.60;;;;;;;;;;5011760;28;20037;-77
2023/03/17 01:46:53;;;;;;;7.03;1.40;;;;;;;;;;5017234;28;20013;-77
2023/03/17 01:49:19;;;;;;;3.67;1.10;;;;;;;;;;4996161;28;20734;-78
2023/03/17 01:51:51;;;;;;;4.60;1.52;;;;;;;;;;5020623;28;20470;-78
2023/03/17 01:54:18;;;;;;;;;;;;;;;;;;5013203;28;20045;-76
2023/03/17 01:56:46;;;;;;;5.95;1.90;;;;;;;;;;5018182;28;19955;-77
2023/03/17 01:59:16;;;;;;;2.90;1.10;;;;;;;;;;4995063;28;20029;-77
2023/03/17 02:01:44;;;;;;;4.45;1.40;;;;;;;;;;4996153;28;20022;-77
2023/03/17 02:04:11;;;;;;;3.13;1.33;;;;;;;;;;5010782;28;20784;-77
2023/03/17 02:06:37;;;;;;;3.50;1.13;;;;;;;;;;5015153;28;20034;-78
2023/03/17 02:09:04;;;;;;;3.53;1.17;;;;;;;;;;5018308;28;20037;-77
2023/03/17 02:11:31;;;;;;;5.20;1.40;;;;;;;;;;5001427;28;20351;-77
2023/03/17 02:13:57;;;;;;;6.28;1.73;;;;;;;;;;5013004;28;20489;-78
2023/03/17 02:16:23;;;;;;;4.20;1.35;;;;;;;;;;5013760;28;20038;-76
2023/03/17 02:18:50;;;;;;;6.75;1.30;;;;;;;;;;5015746;28;20034;-77
2023/03/17 02:21:31;;;;;;;4.35;1.13;;;;;;;;;;5017072;28;20060;-77
2023/03/17 02:24:00;;;;;;;3.70;1.20;;;;;;;;;;5014791;28;20026;-76
2023/03/17 02:26:28;;;;;;;6.32;1.50;;;;;;;;;;5011406;28;20048;-76
2023/03/17 02:28:54;;;;;;;6.10;1.38;;;;;;;;;;5017721;28;20037;-78
2023/03/17 02:31:20;;;;;;;6.63;1.50;;;;;;;;;;5016875;28;20039;-75
2023/03/17 02:33:46;;;;;;;4.22;1.20;;;;;;;;;;5014843;28;20030;-78
2023/03/17 02:36:13;;;;;;;4.32;1.30;;;;;;;;;;5010834;28;20021;-77
2023/03/17 02:38:40;;;;;;;4.28;1.17;;;;;;;;;;5016552;28;20833;-77
2023/03/17 02:41:06;;;;;;;6.18;1.45;;;;;;;;;;5015102;28;20428;-76
2023/03/17 02:43:32;;;;;;;4.82;1.85;;;;;;;;;;4999046;28;20030;-78
2023/03/17 02:45:58;;;;;;;5.00;1.20;;;;;;;;;;5013245;28;20110;-76
2023/03/17 02:48:25;;;;;;;3.15;1.23;;;;;;;;;;5014671;28;20141;-77
2023/03/17 02:50:51;;;;;;;4.43;1.30;;;;;;;;;;5019722;28;20087;-75
2023/03/17 02:53:17;;;;;;;5.93;1.13;;;;;;;;;;5012847;28;20473;-77
2023/03/17 02:55:43;;;;;;;3.85;1.10;;;;;;;;;;5014431;28;20034;-75
2023/03/17 02:58:10;;;;;;;3.65;1.00;;;;;;;;;;5016834;28;20164;-77
2023/03/17 03:00:37;;;;;;;4.88;1.30;;;;;;;;;;5018838;28;20057;-76
2023/03/17 03:03:03;;;;;;;5.43;1.42;;;;;;;;;;5019165;28;20044;-75
2023/03/17 03:05:30;;;;;;;10.50;1.50;;;;;;;;;;5013630;28;20113;-77
2023/03/17 03:07:56;;;;;;;4.13;1.85;;;;;;;;;;5015081;28;20646;-75
2023/03/17 03:10:22;;;;;;;8.02;1.33;;;;;;;;;;5013870;28;20026;-75
2023/03/17 03:12:48;;;;;;;3.40;1.08;;;;;;;;;;5011793;28;20014;-77
2023/03/17 03:15:14;;;;;;;3.97;1.20;;;;;;;;;;4995026;28;20839;-75
2023/03/17 03:17:41;;;;;;;3.83;1.30;;;;;;;;;;5015048;28;20086;-76
2023/03/17 03:20:10;;;;;;;3.15;0.88;;;;;;;;;;5019038;28;20608;-75
2023/03/17 03:22:36;;;;;;;4.13;1.35;;;;;;;;;;4988661;28;20034;-73
2023/03/17 03:25:03;;;;;;;3.17;1.10;;;;;;;;;;4995154;28;20230;-75
2023/03/17 03:27:29;;;;;;;4.07;1.20;;;;;;;;;;5011862;28;20032;-74
2023/03/17 03:29:55;;;;;;;3.20;1.02;;;;;;;;;;5019360;28;20761;-74
2023/03/17 03:32:21;;;;;;;4.32;1.15;;;;;;;;;;5011280;28;20221;-74
2023/03/17 03:34:47;;;;;;;5.80;1.20;;;;;;;;;;5013851;28;20025;-75
2023/03/17 03:37:14;;;;;;;2.45;1.10;;;;;;;;;;5016678;28;20040;-76
2023/03/17 03:39:41;;;;;;;4.00;1.10;;;;;;;;;;5015985;28;20039;-76
2023/03/17 03:42:08;;;;;;;7.07;1.20;;;;;;;;;;5015347;28;20041;-75
2023/03/17 03:44:34;;;;;;;3.78;1.27;;;;;;;;;;5013275;28;20557;-76
2023/03/17 03:47:01;;;;;;;3.13;1.30;;;;;;;;;;4995721;28;20225;-75
2023/03/17 03:49:27;;;;;;;3.85;1.20;;;;;;;;;;5016183;28;20552;-74
2023/03/17 03:51:54;;;;;;;4.75;0.95;;;;;;;;;;5012623;28;20034;-74
2023/03/17 03:54:20;;;;;;;3.05;1.10;;;;;;;;;;4994993;28;20489;-76
2023/03/17 03:56:46;;;;;;;4.78;1.15;;;;;;;;;;5014437;28;20036;-75
2023/03/17 03:59:13;;;;;;;7.18;1.33;;;;;;;;;;5021108;28;20544;-76
2023/03/17 04:01:40;;;;;;;5.03;1.15;;;;;;;;;;5015765;28;20072;-75
2023/03/17 04:04:06;;;;;;;6.43;1.45;;;;;;;;;;5013256;28;20049;-75
2023/03/17 04:06:33;;;;;;;3.63;1.17;;;;;;;;;;5017388;28;20028;-76
2023/03/17 04:08:59;;;;;;;4.10;1.25;;;;;;;;;;5023176;28;20444;-77
2023/03/17 04:11:25;;;;;;;5.65;1.30;;;;;;;;;;4999127;28;20712;-76
2023/03/17 04:13:51;;;;;;;4.15;1.10;;;;;;;;;;5018016;28;20033;-74
2023/03/17 04:16:17;;;;;;;5.22;1.20;;;;;;;;;;5019241;28;20036;-74
2023/03/17 04:18:44;;;;;;;3.72;1.33;;;;;;;;;;5018309;28;20992;-76
2023/03/17 04:21:12;;;;;;;4.50;1.23;;;;;;;;;;5016828;28;20029;-75
2023/03/17 04:23:38;;;;;;;5.00;1.20;;;;;;;;;;4997065;28;20038;-77
2023/03/17 04:26:04;;;;;;;3.83;1.10;;;;;;;;;;5016900;28;20082;-75
2023/03/17 04:28:31;;;;;;;4.32;1.33;;;;;;;;;;5017905;28;20083;-75
2023/03/17 04:30:57;;;;;;;2.83;1.00;;;;;;;;;;5013687;28;20075;-75
2023/03/17 04:33:23;;;;;;;15.93;1.55;;;;;;;;;;5015281;28;20037;-77
2023/03/17 04:35:50;;;;;;;4.45;1.35;;;;;;;;;;5014432;28;20160;-75
2023/03/17 04:38:16;;;;;;;3.35;1.10;;;;;;;;;;5013232;28;20478;-75
2023/03/17 04:40:42;;;;;;;4.68;1.20;;;;;;;;;;4994427;28;20062;-76
2023/03/17 04:43:09;;;;;;;2.80;0.95;;;;;;;;;;4995335;28;20383;-75
2023/03/17 04:45:36;;;;;;;4.15;1.00;;;;;;;;;;4995379;28;20041;-77
2023/03/17 04:48:02;;;;;;;5.88;1.17;;;;;;;;;;4998162;28;20550;-75
2023/03/17 04:50:28;;;;;;;5.63;1.20;;;;;;;;;;4992063;28;20808;-77
2023/03/17 04:52:54;;;;;;;1.70;1.08;;;;;;;;;;4990301;28;20034;-77
2023/03/17 04:55:21;;;;;;;2.63;0.95;;;;;;;;;;4997976;28;20105;-77
2023/03/17 04:57:47;;;;;;;4.82;0.90;;;;;;;;;;4996335;28;20545;-74
2023/03/17 05:00:14;;;;;;;3.30;1.55;;;;;;;;;;4993242;28;20030;-76
2023/03/17 05:02:40;;;;;;;4.15;1.52;;;;;;;;;;4995520;28;20033;-76
2023/03/17 05:05:07;;;;;;;4.25;1.02;;;;;;;;;;4996408;28;20562;-75
2023/03/17 05:07:33;;;;;;;6.13;1.10;;;;;;;;;;4998791;28;20048;-77
2023/03/17 05:09:59;;;;;;;4.40;1.90;;;;;;;;;;4989526;28;20081;-75
2023/03/17 05:12:25;;;;;;;3.47;1.10;;;;;;;;;;4995074;28;20064;-76
2023/03/17 05:14:52;;;;;;;3.42;1.15;;;;;;;;;;4994437;28;20566;-76
2023/03/17 05:17:18;;;;;;;3.58;1.23;;;;;;;;;;4998293;28;20044;-76
2023/03/17 05:19:44;;;;;;;6.22;1.10;;;;;;;;;;4988807;28;20172;-76
2023/03/17 05:22:10;;;;;;;6.63;1.20;;;;;;;;;;4993642;28;20093;-76
2023/03/17 05:24:37;;;;;;;3.53;1.30;;;;;;;;;;4996388;28;20038;-76
2023/03/17 05:27:03;;;;;;;5.88;1.15;;;;;;;;;;4993301;28;20033;-76
2023/03/17 05:29:29;;;;;;;3.28;1.13;;;;;;;;;;4987977;28;20789;-76
2023/03/17 05:31:55;;;;;;;4.45;1.20;;;;;;;;;;4995182;28;20030;-76
2023/03/17 05:34:21;;;;;;;6.68;1.45;;;;;;;;;;4991194;28;20041;-75
2023/03/17 05:36:49;;;;;;;3.72;1.20;;;;;;;;;;4994124;28;20040;-77
2023/03/17 05:39:15;;;;;;;5.38;1.35;;;;;;;;;;4994950;28;20113;-76
2023/03/17 05:41:42;;;;;;;4.30;1.25;;;;;;;;;;5007905;28;20045;-76
2023/03/17 05:44:09;;;;;;;2.63;1.17;;;;;;;;;;5016080;28;20568;-75
2023/03/17 05:46:35;;;;;;;10.10;1.50;;;;;;;;;;5017453;28;20155;-76
2023/03/17 05:49:02;;;;;;;4.72;1.40;;;;;;;;;;5014342;28;20059;-76
2023/03/17 05:51:28;;;;;;;4.25;0.90;;;;;;;;;;5013528;28;20033;-77
2023/03/17 05:53:54;;;;;;;10.07;1.60;;;;;;;;;;5012884;28;20681;-77
2023/03/17 05:56:21;;;;;;;1.75;1.10;;;;;;;;;;5014735;28;20075;-76
2023/03/17 05:58:47;;;;;;;6.43;1.15;;;;;;;;;;5013697;28;20041;-77
2023/03/17 06:01:13;;;;;;;2.85;1.08;;;;;;;;;;4995703;28;20034;-76
2023/03/17 06:03:39;;;;;;;4.45;1.40;;;;;;;;;;5014157;28;20559;-76
2023/03/17 06:06:06;;;;;;;3.15;1.05;;;;;;;;;;5013827;28;20045;-77
2023/03/17 06:08:32;;;;;;;5.65;1.30;;;;;;;;;;5015283;28;20585;-75
2023/03/17 06:10:58;;;;;;;3.28;1.17;;;;;;;;;;4993792;28;20021;-76
2023/03/17 06:13:24;;;;;;;2.95;1.20;;;;;;;;;;5014204;28;20022;-76
2023/03/17 06:15:51;;;;;;;4.80;1.27;;;;;;;;;;5015352;28;20032;-77
2023/03/17 06:18:18;;;;;;;4.00;0.90;;;;;;;;;;5008557;28;20026;-76
2023/03/17 06:20:45;;;;;;;1.52;0.90;;;;;;;;;;5011502;28;20545;-76
2023/03/17 06:23:11;;;;;;;3.25;1.33;;;;;;;;;;5014579;28;20018;-77
2023/03/17 06:25:38;;;;;;;2.88;1.27;;;;;;;;;;5011492;28;20060;-75
2023/03/17 06:28:04;;;;;;;2.58;1.30;;;;;;;;;;5012016;28;20029;-76
2023/03/17 06:30:32;;;;;;;5.93;1.17;;;;;;;;;;5008875;28;20029;-77
2023/03/17 06:32:58;;;;;;;3.90;1.38;;;;;;;;;;5010504;28;20040;-78
2023/03/17 06:35:25;;;;;;;4.13;1.50;;;;;;;;;;4999347;28;20048;-78
2023/03/17 06:37:51;;;;;;;3.05;1.38;;;;;;;;;;5012338;28;20508;-75
2023/03/17 06:40:17;;;;;;;6.20;1.73;;;;;;;;;;4978196;28;20886;-76
2023/03/17 06:42:43;;;;;;;4.50;1.27;;;;;;;;;;4987650;28;20049;-75
2023/03/17 06:45:10;;;;;;;4.47;1.70;;;;;;;;;;4989053;28;20124;-76
2023/03/17 06:47:38;;;;;;;6.50;1.38;;;;;;;;;;4994281;28;20072;-75
2023/03/17 06:50:05;;;;;;;8.35;1.70;;;;;;;;;;4992937;28;20117;-77
2023/03/17 06:52:31;;;;;;;4.00;1.27;;;;;;;;;;4994176;28;20097;-77
2023/03/17 06:54:57;;;;;;;5.75;1.40;;;;;;;;;;4995326;28;20030;-78
2023/03/17 06:57:24;;;;;;;4.53;1.38;;;;;;;;;;4992694;28;20054;-78
2023/03/17 06:59:50;;;;;;;3.35;1.25;;;;;;;;;;4992723;28;20500;-77
2023/03/17 07:02:16;;;;;;;4.95;1.60;;;;;;;;;;4993860;28;20053;-76
2023/03/17 07:04:45;;;;;;;2.85;1.50;;;;;;;;;;4994093;28;20041;-76
2023/03/17 07:07:12;;;;;;;3.60;1.25;;;;;;;;;;4985502;28;20027;-78
2023/03/17 07:09:38;;;;;;;5.75;1.50;;;;;;;;;;4989560;28;20083;-83
2023/03/17 07:12:05;;;;;;;3.63;1.90;;;;;;;;;;4990971;28;20056;-78
2023/03/17 07:14:35;;;;;;;9.57;2.70;;;;;;;;;;4995458;28;20118;-78
2023/03/17 07:17:05;;;;;;;8.20;2.30;;;;;;;;;;4991623;28;20650;-78
2023/03/17 07:19:32;;;;;;;4.65;2.45;;;;;;;;;;4991637;28;20053;-78
2023/03/17 07:21:58;;;;;;;7.57;2.38;;;;;;;;;;4993363;28;20644;-78
2023/03/17 07:24:25;;;;;;;9.50;2.22;;;;;;;;;;4995179;28;20038;-78
2023/03/17 07:26:51;;;;;;;4.35;1.48;;;;;;;;;;4989015;28;22302;-80
2023/03/17 07:29:17;;;;;;;5.47;1.40;;;;;;;;;;4993060;28;20098;-79
2023/03/17 07:31:44;;;;;;;6.90;1.85;;;;;;;;;;4991512;28;20097;-76
2023/03/17 07:34:11;;;;;;;4.75;2.20;;;;;;;;;;4991446;28;20616;-81
2023/03/17 07:36:38;;;;;;;5.63;1.30;;;;;;;;;;4996676;28;20029;-79
2023/03/17 07:39:04;;;;;;;6.45;1.17;;;;;;;;;;4995793;28;20514;-82
2023/03/17 07:41:30;;;;;;;3.13;1.20;;;;;;;;;;5012368;28;20543;-80
2023/03/17 07:43:56;;;;;;;6.45;1.65;;;;;;;;;;5018332;28;20037;-79
2023/03/17 07:46:23;;;;;;;4.15;1.73;;;;;;;;;;5018276;28;20481;-79
2023/03/17 07:48:49;;;;;;;5.93;2.35;;;;;;;;;;5013253;28;20117;-79
2023/03/17 07:51:19;;;;;;;6.03;1.90;;;;;;;;;;5014573;28;20071;-78
2023/03/17 07:53:46;;;;;;;7.82;1.60;;;;;;;;;;5017293;28;20029;-80
2023/03/17 07:56:13;;;;;;;3.75;1.67;;;;;;;;;;5017113;28;20026;-80
2023/03/17 07:58:39;;;;;;;6.35;1.90;;;;;;;;;;5012401;28;20060;-79
2023/03/17 08:01:07;;;;;;;3.97;1.88;;;;;;;;;;5013092;28;20113;-79
2023/03/17 08:03:33;;;;;;;6.85;1.83;;;;;;;;;;5016643;28;20025;-78
2023/03/17 08:06:00;;;;;;;8.40;1.67;;;;;;;;;;5011333;28;20037;-79
2023/03/17 08:08:27;;;;;;;3.63;1.60;;;;;;;;;;5013928;28;20517;-79
2023/03/17 08:10:57;;;;;;;2.63;1.45;;;;;;;;;;5012842;28;20083;-81
2023/03/17 08:13:24;;;;;;;3.72;2.08;;;;;;;;;;5017472;28;20112;-79
2023/03/17 08:15:52;;;;;;;4.72;1.40;;;;;;;;;;5020229;28;20069;-79
2023/03/17 08:18:18;;;;;;;7.60;1.80;;;;;;;;;;5011314;28;20030;-80
2023/03/17 08:20:44;;;;;;;3.08;1.10;;;;;;;;;;5017245;28;20346;-80
2023/03/17 08:23:10;;;;;;;3.35;1.00;;;;;;;;;;5000661;28;20648;-81
2023/03/17 08:25:37;;;;;;;2.22;1.30;;;;;;;;;;5015700;28;20061;-79
2023/03/17 08:28:03;;;;;;;3.67;1.52;;;;;;;;;;5013405;28;20029;-81
2023/03/17 08:30:30;;;;;;;8.55;1.48;;;;;;;;;;5016337;28;20727;-80
2023/03/17 08:32:56;;;;;;;3.80;1.13;;;;;;;;;;5012361;28;20026;-77
2023/03/17 08:35:22;;;;;;;6.70;1.70;;;;;;;;;;5013315;28;20499;-81
2023/03/17 08:37:48;;;;;;;4.07;1.20;;;;;;;;;;5015890;28;20608;-81
2023/03/17 08:40:16;;;;;;;4.38;1.48;;;;;;;;;;5012417;28;20064;-79
2023/03/17 08:42:43;;;;;;;4.07;1.45;;;;;;;;;;5017847;28;20030;-79
2023/03/17 08:45:11;;;;;;;1.40;1.00;;;;;;;;;;5011779;28;20034;-76
2023/03/17 08:47:38;;;;;;;4.25;1.30;;;;;;;;;;4997085;28;20585;-78
2023/03/17 08:50:06;;;;;;;3.60;1.50;;;;;;;;;;5013622;28;20029;-77
2023/03/17 08:52:32;;;;;;;4.22;0.90;;;;;;;;;;5016337;28;20025;-77
2023/03/17 08:54:59;;;;;;;3.97;1.35;;;;;;;;;;5014125;28;20036;-79
2023/03/17 08:57:26;;;;;;;4.18;1.15;;;;;;;;;;5014261;28;20552;-78
2023/03/17 08:59:52;;;;;;;2.13;1.00;;;;;;;;;;5015789;28;20022;-76
2023/03/17 09:02:19;;;;;;;4.65;1.10;;;;;;;;;;5013274;28;20054;-79
2023/03/17 09:04:45;;;;;;;3.05;1.20;;;;;;;;;;5013670;28;20096;-78
2023/03/17 09:07:12;;;;;;;4.93;1.67;;;;;;;;;;5010828;28;20079;-79
2023/03/17 09:09:38;;;;;;;2.17;1.00;;;;;;;;;;5016306;28;20285;-76
2023/03/17 09:12:06;;;;;;;2.95;1.17;;;;;;;;;;5013156;28;20116;-76
2023/03/17 09:14:38;;;;;;;4.05;1.33;;;;;;;;;;5010759;28;20033;-79
2023/03/17 09:17:04;;;;;;;3.47;1.13;;;;;;;;;;5016055;28;20017;-80
2023/03/17 09:19:31;;;;;;;6.68;1.30;;;;;;;;;;5014886;28;20028;-79
2023/03/17 09:21:57;;;;;;;2.70;1.05;;;;;;;;;;5016409;28;20026;-79
2023/03/17 09:24:23;;;;;;;2.70;1.30;;;;;;;;;;5017232;28;20033;-80
2023/03/17 09:26:49;;;;;;;1.73;0.93;;;;;;;;;;5014126;28;20040;-80
2023/03/17 09:29:16;;;;;;;3.67;1.33;;;;;;;;;;4996483;28;20509;-79
2023/03/17 09:31:42;;;;;;;3.47;0.93;;;;;;;;;;5010415;28;20040;-78
2023/03/17 09:34:10;;;;;;;2.90;1.08;;;;;;;;;;4995087;28;20040;-76
2023/03/17 09:36:36;;;;;;;2.15;1.05;;;;;;;;;;4984856;28;20773;-80
2023/03/17 09:39:02;;;;;;;4.13;1.08;;;;;;;;;;5015846;28;20112;-80
2023/03/17 09:41:44;;;;;;;2.13;1.00;;;;;;;;;;5013847;28;20042;-78
2023/03/17 09:44:25;;;;;;;3.67;1.00;;;;;;;;;;5008103;28;20095;-80
2023/03/17 09:46:57;;;;;;;3.67;1.00;;;;;;;;;;4996313;28;20120;-77
2023/03/17 09:49:44;;;;;;;2.45;0.90;;;;;;;;;;5009403;28;20858;-80
2023/03/17 09:52:13;;;;;;;5.35;1.17;;;;;;;;;;5013865;28;20110;-80
2023/03/17 09:54:40;;;;;;;3.88;0.93;;;;;;;;;;4996955;28;20033;-80
2023/03/17 09:57:24;;;;;;;4.45;1.20;;;;;;;;;;5010079;28;20025;-79
2023/03/17 10:00:05;;;;;;;3.08;1.15;;;;;;;;;;4995991;28;20068;-79
2023/03/17 10:02:32;;;;;;;1.88;1.20;;;;;;;;;;5017517;28;20106;-76
2023/03/17 10:04:59;;;;;;;1.40;1.00;;;;;;;;;;5010630;28;20045;-81
2023/03/17 10:07:31;;;;;;;2.88;1.30;;;;;;;;;;5014118;28;20076;-79
2023/03/17 10:09:57;;;;;;;;;;;;;;;;;;4999364;28;20648;-79
2023/03/17 10:12:33;;;;;;;2.90;1.27;;;;;;;;;;5013967;28;19916;-78
2023/03/17 10:15:05;;;;;;;4.45;1.52;;;;;;;;;;5011006;28;20057;-78
2023/03/17 10:17:35;;;;;;;2.58;1.35;;;;;;;;;;5012235;28;20039;-80
2023/03/17 10:20:07;;;;;;;1.42;0.95;;;;;;;;;;5015065;28;20028;-79
2023/03/17 10:22:46;;;;;;;2.25;0.88;;;;;;;;;;5015808;28;20030;-80
2023/03/17 10:25:13;;;;;;;2.85;0.93;;;;;;;;;;5007284;28;20030;-79
2023/03/17 10:27:40;;;;;;;2.83;1.30;;;;;;;;;;4992873;28;20137;-80
2023/03/17 10:30:13;;;;;;;11.95;8.82;;;;;;;;;;5012752;28;20123;-79
2023/03/17 10:32:40;;;;;;;4.13;2.67;;;;;;;;;;5016489;28;20033;-77
2023/03/17 10:35:07;;;;;;;4.57;1.80;;;;;;;;;;4993619;28;20026;-79
2023/03/17 10:37:35;;;;;;;5.35;1.98;;;;;;;;;;5012020;28;21374;-80
2023/03/17 10:40:03;;;;;;;5.13;1.38;;;;;;;;;;5017178;28;20041;-79
2023/03/17 10:42:34;;;;;;;2.78;1.20;;;;;;;;;;5014552;28;20474;-79
2023/03/17 10:45:13;;;;;;;3.38;1.10;;;;;;;;;;5014866;28;20065;-77
2023/03/17 10:47:44;;;;;;;2.80;1.10;;;;;;;;;;5015711;28;20402;-78
2023/03/17 10:50:21;;;;;;;1.48;0.93;;;;;;;;;;4996825;28;20723;-76
2023/03/17 10:52:52;;;;;;;7.57;1.10;;;;;;;;;;5011923;28;20022;-76
2023/03/17 10:55:20;;;;;;;4.13;1.50;;;;;;;;;;5013578;28;20025;-78
2023/03/17 10:58:12;;;;;;;1.98;1.10;;;;;;;;;;5015191;28;20029;-76
2023/03/17 11:00:39;;;;;;;2.50;1.10;;;;;;;;;;5013133;28;20627;-77
2023/03/17 11:03:16;;;;;;;4.53;1.08;;;;;;;;;;5016418;28;20116;-77
2023/03/17 11:05:54;;;;;;;3.35;1.20;;;;;;;;;;5013820;28;20104;-77
2023/03/17 11:08:20;;;;;;;2.63;1.35;;;;;;;;;;5016285;28;20034;-77
2023/03/17 11:10:53;;;;;;;1.60;0.90;;;;;;;;;;5019028;28;20033;-77
2023/03/17 11:13:19;;;;;;;3.22;1.02;;;;;;;;;;5010060;28;20049;-77
2023/03/17 11:15:55;;;;;;;3.53;1.05;;;;;;;;;;5012046;28;20341;-77
2023/03/17 11:18:24;;;;;;;5.13;1.10;;;;;;;;;;5015732;28;20053;-77
2023/03/17 11:20:54;;;;;;;1.90;0.93;;;;;;;;;;5015905;28;20521;-77
2023/03/17 11:23:26;;;;;;;5.57;1.00;;;;;;;;;;5013359;28;20017;-77
2023/03/17 11:25:52;;;;;;;;;;;;;;;;;;5012048;28;20541;-77
2023/03/17 11:28:20;;;;;;;5.18;1.52;;;;;;;;;;5017115;28;19948;-78
2023/03/17 11:31:00;;;;;;;3.65;1.10;;;;;;;;;;5017725;28;20041;-77
2023/03/17 11:33:36;;;;;;;3.38;1.50;;;;;;;;;;5008513;28;20105;-77
2023/03/17 11:36:07;;;;;;;3.05;1.17;;;;;;;;;;5015547;28;20190;-78
2023/03/17 11:38:49;;;;;;;3.80;1.38;;;;;;;;;;4995434;28;20029;-77
2023/03/17 11:41:16;;;;;;;;;;;;;;;;;;4996919;28;20049;-77
2023/03/17 11:44:01;;;;;;;2.72;1.25;;;;;;;;;;4990937;28;19921;-79
2023/03/17 11:46:29;;;;;;;1.33;0.82;;;;;;;;;;4992509;28;20077;-77
2023/03/17 11:48:55;;;;;;;2.55;0.90;;;;;;;;;;4994464;28;20033;-77
2023/03/17 11:51:26;;;;;;;2.10;1.00;;;;;;;;;;4996713;28;20045;-79
2023/03/17 11:54:12;;;;;;;3.00;1.20;;;;;;;;;;4991794;28;20125;-79
2023/03/17 11:56:55;;;;;;;1.48;1.00;;;;;;;;;;4993957;28;20105;-82
2023/03/17 11:59:28;;;;;;;14.35;1.92;;;;;;;;;;4995939;28;20519;-82
2023/03/17 12:01:54;;;;;;;3.63;1.17;;;;;;;;;;4994647;28;20028;-81
2023/03/17 12:04:25;;;;;;;3.88;1.02;;;;;;;;;;4991018;28;20693;-81
2023/03/17 12:06:56;;;;;;;2.40;1.30;;;;;;;;;;4990516;28;20082;-80
2023/03/17 12:09:34;;;;;;;2.00;1.10;;;;;;;;;;4994266;28;20066;-80
2023/03/17 12:12:02;;;;;;;3.72;1.40;;;;;;;;;;4992420;28;20057;-80
2023/03/17 12:14:31;;;;;;;1.75;0.85;;;;;;;;;;4986985;28;20034;-80
2023/03/17 12:17:19;;;;;;;2.33;1.30;;;;;;;;;;4991175;28;20034;-81
2023/03/17 12:20:07;;;;;;;2.50;1.17;;;;;;;;;;4996358;28;20026;-82
2023/03/17 12:23:03;;;;;;;2.47;0.90;;;;;;;;;;4988107;28;20053;-80
2023/03/17 12:25:41;;;;;;;4.15;1.20;;;;;;;;;;4943920;28;20043;-79
2023/03/17 12:28:14;;;;;;;5.53;1.30;;;;;;;;;;4996613;28;20603;-78
2023/03/17 12:30:56;;;;;;;1.20;0.98;;;;;;;;;;4995808;28;20041;-78
2023/03/17 12:33:48;;;;;;;5.10;1.35;;;;;;;;;;4989347;28;20026;-80
2023/03/17 12:36:16;;;;;;;2.67;1.00;;;;;;;;;;4954711;28;20064;-79
2023/03/17 12:39:04;;;;;;;3.78;1.42;;;;;;;;;;4991969;28;20061;-78
2023/03/17 12:41:37;;;;;;;3.17;1.58;;;;;;;;;;5005297;28;20038;-81
2023/03/17 12:44:06;;;;;;;1.83;1.15;;;;;;;;;;4994673;28;20045;-79
2023/03/17 12:46:33;;;;;;;3.40;1.30;;;;;;;;;;5015351;28;20020;-81
2023/03/17 12:49:02;;;;;;;3.33;1.15;;;;;;;;;;5012005;28;20474;-78
2023/03/17 12:51:28;;;;;;;1.67;0.98;;;;;;;;;;5011730;28;20112;-79
2023/03/17 12:53:54;;;;;;;2.20;1.50;;;;;;;;;;5009471;28;20502;-80
2023/03/17 12:56:28;;;;;;;3.28;1.50;;;;;;;;;;5014746;28;20022;-77
2023/03/17 12:58:59;;;;;;;4.60;1.58;;;;;;;;;;5013558;28;20056;-78
2023/03/17 13:01:33;;;;;;;3.00;1.47;;;;;;;;;;5015315;28;20021;-79
2023/03/17 13:04:14;;;;;;;2.22;1.67;;;;;;;;;;4992194;28;20418;-78
2023/03/17 13:07:07;;;;;;;4.85;1.63;;;;;;;;;;4998643;28;20652;-82
2023/03/17 13:09:34;;;;;;;3.80;1.90;;;;;;;;;;4981768;28;20045;-79
2023/03/17 13:12:02;;;;;;;3.83;1.52;;;;;;;;;;5003103;28;20026;-80
2023/03/17 13:14:40;;;;;;;3.38;1.35;;;;;;;;;;5016217;28;20017;-77
2023/03/17 13:17:16;;;;;;;2.33;1.00;;;;;;;;;;5017199;28;20392;-79
2023/03/17 13:19:56;;;;;;;2.83;1.38;;;;;;;;;;5016200;28;20083;-77
2023/03/17 13:22:22;;;;;;;4.68;1.90;;;;;;;;;;5017861;28;20025;-77
2023/03/17 13:24:50;;;;;;;2.90;1.20;;;;;;;;;;5015785;28;20124;-80
2023/03/17 13:27:22;;;;;;;3.00;1.60;;;;;;;;;;5019250;28;20023;-77
2023/03/17 13:29:52;;;;;;;3.47;1.23;;;;;;;;;;5014708;28;20078;-81
2023/03/17 13:32:22;;;;;;;2.10;1.40;;;;;;;;;;5009992;28;20021;-78
2023/03/17 13:35:01;;;;;;;3.45;1.20;;;;;;;;;;5000805;28;20029;-78
2023/03/17 13:37:27;;;;;;;1.85;1.25;;;;;;;;;;5016341;28;20026;-78
2023/03/17 13:39:56;;;;;;;2.88;1.38;;;;;;;;;;5018381;28;20047;-79
2023/03/17 13:42:28;;;;;;;13.15;1.73;;;;;;;;;;5010764;28;20124;-79
2023/03/17 13:45:08;;;;;;;2.42;1.10;;;;;;;;;;5015941;28;20128;-80
2023/03/17 13:47:41;;;;;;;1.65;1.20;;;;;;;;;;5014541;28;20025;-80
2023/03/17 13:50:12;;;;;;;2.55;1.77;;;;;;;;;;5013992;28;20026;-79
2023/03/17 13:52:40;;;;;;;3.80;1.92;;;;;;;;;;5014563;28;20410;-81
2023/03/17 13:55:24;;;;;;;4.07;1.60;;;;;;;;;;5014643;28;20501;-80
2023/03/17 13:58:09;;;;;;;2.60;1.30;;;;;;;;;;5011860;28;20034;-83
2023/03/17 14:00:43;;;;;;;5.53;1.20;;;;;;;;;;5019750;28;20063;-79
2023/03/17 14:03:27;;;;;;;2.80;1.25;;;;;;;;;;5014175;28;20018;-79
2023/03/17 14:05:54;;;;;;;4.10;1.25;;;;;;;;;;4994955;28;20120;-79
2023/03/17 14:08:27;;;;;;;3.63;1.15;;;;;;;;;;4993618;28;20268;-78
2023/03/17 14:10:54;;;;;;;3.70;1.40;;;;;;;;;;5016411;28;20033;-76
2023/03/17 14:13:30;;;;;;;3.30;1.17;;;;;;;;;;5015956;28;20029;-78
2023/03/17 14:16:02;;;;;;;5.75;1.63;;;;;;;;;;5013418;28;20180;-78
2023/03/17 14:18:31;;;;;;;;;;;;;;;;;;5018146;28;20122;-77
2023/03/17 14:20:58;;;;;;;1.77;1.48;;;;;;;;;;5008548;28;19924;-77
2023/03/17 14:23:25;;;;;;;5.47;1.55;;;;;;;;;;4993288;28;20037;-78
2023/03/17 14:25:54;;;;;;;4.50;1.40;;;;;;;;;;4993182;28;20422;-78
2023/03/17 14:28:25;;;;;;;2.40;1.25;;;;;;;;;;5016851;28;20018;-78
2023/03/17 14:30:52;;;;;;;3.03;1.20;;;;;;;;;;5008938;28;20483;-79
2023/03/17 14:33:19;;;;;;;2.20;1.10;;;;;;;;;;4998103;28;20124;-77
2023/03/17 14:35:45;;;;;;;5.72;1.60;;;;;;;;;;5016923;28;20513;-78
2023/03/17 14:38:21;;;;;;;3.50;1.20;;;;;;;;;;5015629;28;20138;-78
2023/03/17 14:40:49;;;;;;;6.38;1.35;;;;;;;;;;5012510;28;20052;-77
2023/03/17 14:43:15;;;;;;;6.95;1.75;;;;;;;;;;5015353;28;20597;-78
2023/03/17 14:45:42;;;;;;;4.00;1.52;;;;;;;;;;5015057;28;20122;-78
2023/03/17 14:48:13;;;;;;;4.03;1.40;;;;;;;;;;4997151;28;20040;-79
2023/03/17 14:50:47;;;;;;;2.92;1.85;;;;;;;;;;4996100;28;20033;-76
2023/03/17 14:53:14;;;;;;;2.53;1.17;;;;;;;;;;5017171;28;20133;-79